Odin Finder — IZER — position and weather

sailwx.info

Track history (hours):
 
Tides and Currents Weather Stations Pressure Air Temp Water Temp Dewpoint Dewpoint Depression Visibility Wind Speed Wind Dir Waves Ship Positions

Odin Finder

Last reported at 2016-Feb-06 17:33 UTC. Time now 2016-Feb-06 18:29 UTC.
Position N 37°39' E 023°30'.

Length 46 m; draft 4.9 m.

Type: Ship. MMSI: 247048200.

Date/timePositionNaut miles runAvg speedWind from/ knotsBaromVisibWave heightAir tempDewpointWater temp
2016-Feb-06 17:33N 37°39' E 023°30'1 0.6
2016-Feb-06 16:33N 37°39' E 023°30'0 0.1
2016-Feb-06 15:33N 37°39' E 023°30'0 0.5
2016-Feb-06 14:33N 37°40' E 023°30'1 0.6
2016-Feb-06 13:33N 37°40' E 023°30'1 1.2
2016-Feb-06 12:34N 37°39' E 023°30'1 0.6
2016-Feb-06 11:34N 37°39' E 023°30'1 0.6
2016-Feb-06 10:33N 37°40' E 023°30'1 0.8
2016-Feb-06 09:34N 37°41' E 023°31'5 5.4
2016-Feb-06 08:34N 37°45' E 023°34'5 5.3
2016-Feb-06 07:34N 37°40' E 023°31'1 1.0
2016-Feb-06 06:30N 37°40' E 023°30'1 1.4
2016-Feb-06 05:34N 37°39' E 023°30'0 0.1
2016-Feb-06 04:34N 37°39' E 023°30'0 0.3
2016-Feb-06 03:33N 37°39' E 023°30'0 0.3
2016-Feb-06 02:30N 37°39' E 023°30'1 0.6
2016-Feb-06 01:32N 37°40' E 023°30'1 1.2
2016-Feb-06 00:31N 37°39' E 023°30'1 0.8
2016-Feb-05 23:34N 37°39' E 023°30'1 0.8
2016-Feb-05 22:34N 37°38' E 023°31'1 0.8
2016-Feb-05 21:34N 37°39' E 023°31'1 0.5
2016-Feb-05 20:33N 37°40' E 023°31'0 0.3
2016-Feb-05 19:33N 37°40' E 023°30'0 0.3
2016-Feb-05 18:33N 37°40' E 023°30'0 0.3
2016-Feb-05 17:33N 37°39' E 023°30'0 0.4
2016-Feb-05 16:33N 37°39' E 023°31'0 0.3
2016-Feb-05 15:33N 37°39' E 023°31'1 0.7
2016-Feb-05 14:34N 37°40' E 023°30'1 0.5
2016-Feb-05 13:34N 37°40' E 023°30'0 0.3
2016-Feb-05 12:32N 37°40' E 023°30'0 0.1
2016-Feb-05 11:34N 37°40' E 023°30'0 0.4
2016-Feb-05 10:34N 37°40' E 023°29'0 0.2
2016-Feb-05 09:33N 37°40' E 023°29'0 0.2
2016-Feb-05 08:34N 37°40' E 023°29'2 1.6
2016-Feb-05 07:33N 37°40' E 023°31'0 0.3
2016-Feb-05 06:34N 37°41' E 023°31'2 2.2
2016-Feb-05 05:34N 37°39' E 023°30'0 0.2
2016-Feb-05 04:34N 37°39' E 023°30'0 0.5
2016-Feb-05 03:33N 37°39' E 023°30'1 0.5
2016-Feb-05 02:34N 37°39' E 023°31'2 2.0
2016-Feb-05 01:34N 37°39' E 023°33'0 0.4
2016-Feb-05 00:34N 37°39' E 023°33'1 0.6
2016-Feb-04 23:34N 37°39' E 023°32'1 0.8
2016-Feb-04 22:33N 37°38' E 023°31'1 0.8
2016-Feb-04 21:33N 37°39' E 023°32'1 1.3
2016-Feb-04 20:33N 37°39' E 023°34'2 2.2
2016-Feb-04 19:34N 37°37' E 023°35'3 3.2
2016-Feb-04 18:34N 37°35' E 023°38'1 0.7
2016-Feb-04 17:33N 37°35' E 023°39'4 3.7
2016-Feb-04 16:34N 37°39' E 023°38'4 4.3
2016-Feb-04 15:34N 37°43' E 023°36'1 0.8
2016-Feb-04 14:34N 37°42' E 023°36'1 0.8
2016-Feb-04 13:33N 37°42' E 023°37'0 0.3
2016-Feb-04 12:33N 37°42' E 023°36'2 2.2
2016-Feb-04 11:34N 37°40' E 023°37'4 3.7
2016-Feb-04 10:33N 37°44' E 023°36'4 3.8
2016-Feb-04 09:34N 37°47' E 023°34'5 4.7
2016-Feb-04 08:34N 37°50' E 023°29'3 2.8
2016-Feb-04 07:34N 37°52' E 023°26'4 4.1
2016-Feb-04 06:33N 37°54' E 023°22'3 3.3
2016-Feb-04 05:34N 37°57' E 023°21'2 2.3
2016-Feb-04 04:34N 37°55' E 023°21'4 3.8
2016-Feb-04 03:34N 37°52' E 023°24'4 4.0
2016-Feb-04 02:34N 37°50' E 023°29'4 4.3
2016-Feb-04 01:34N 37°47' E 023°33'4 4.1
2016-Feb-04 00:34N 37°44' E 023°36'2 1.7
2016-Feb-03 23:34N 37°42' E 023°36'4 4.3
2016-Feb-03 22:34N 37°46' E 023°35'5 4.5
2016-Feb-03 21:34N 37°49' E 023°30'5 4.7
2016-Feb-03 20:34N 37°52' E 023°25'4 4.3
2016-Feb-03 19:33N 37°55' E 023°21'1 1.2
2016-Feb-03 18:33N 37°56' E 023°21'0 0.5
2016-Feb-03 17:33N 37°56' E 023°21'0 0.1
2016-Feb-03 16:33N 37°56' E 023°21'4 3.8
2016-Feb-03 15:34N 37°53' E 023°22'2 1.7
2016-Feb-03 14:34N 37°51' E 023°23'1 0.9
2016-Feb-03 13:34N 37°52' E 023°23'0 0.4
2016-Feb-03 12:33N 37°52' E 023°23'5 5.3
2016-Feb-03 11:34N 37°50' E 023°29'5 4.6
2016-Feb-03 10:34N 37°52' E 023°34'3 3.3
2016-Feb-03 09:33N 37°55' E 023°33'0 0.0
2016-Feb-03 08:33N 37°55' E 023°33'0 0.0
2016-Feb-03 07:33N 37°55' E 023°33'0 0.0
2016-Feb-03 06:30N 37°55' E 023°33'0 0.0
2016-Feb-03 05:30N 37°55' E 023°33'0 0.0
2016-Feb-03 04:33N 37°55' E 023°33'0 0.0
2016-Feb-03 03:33N 37°55' E 023°33'0 0.0
2016-Feb-03 02:33N 37°55' E 023°33'0 0.0
2016-Feb-03 01:33N 37°55' E 023°33'0 0.0
2016-Feb-03 00:33N 37°55' E 023°33'0 0.0
2016-Feb-02 23:33N 37°55' E 023°33'0 0.0
2016-Feb-02 22:33N 37°55' E 023°33'0 0.0
2016-Feb-02 21:33N 37°55' E 023°33'0 0.0
2016-Feb-02 20:33N 37°55' E 023°33'0 0.0
2016-Feb-02 19:33N 37°55' E 023°33'0 0.0
2016-Feb-02 18:30N 37°55' E 023°33'0 0.0
2016-Feb-02 17:33N 37°55' E 023°33'0 0.0
2016-Feb-02 16:33N 37°55' E 023°33'0 0.0
2016-Feb-02 15:33N 37°55' E 023°33'0 0.0
2016-Feb-02 14:30N 37°55' E 023°33'0 0.0
2016-Feb-02 13:33N 37°55' E 023°33'0 0.0
2016-Feb-02 12:33N 37°55' E 023°33'0 0.0
2016-Feb-02 11:30N 37°55' E 023°33'0 0.0
2016-Feb-02 10:33N 37°55' E 023°33'0 0.0
2016-Feb-02 09:33N 37°55' E 023°33'0 0.0
2016-Feb-02 08:31N 37°55' E 023°33'0 0.0
2016-Feb-02 07:31N 37°55' E 023°33'0 0.1
2016-Feb-02 06:31N 37°55' E 023°33'0 0.0
2016-Feb-02 05:31N 37°55' E 023°33'0 0.0
2016-Feb-02 04:31N 37°55' E 023°33'0 0.0
2016-Feb-02 03:31N 37°55' E 023°33'0 0.0
2016-Feb-02 02:31N 37°55' E 023°33'0 0.0
2016-Feb-02 01:31N 37°55' E 023°33'0 0.0
2016-Feb-02 00:31N 37°55' E 023°33'0 0.0
2016-Feb-01 23:31N 37°55' E 023°33'0 0.0
2016-Feb-01 22:31N 37°55' E 023°33'0 0.0
2016-Feb-01 21:31N 37°55' E 023°33'0 0.0
2016-Feb-01 20:28N 37°55' E 023°33'0 0.0
2016-Feb-01 19:31N 37°55' E 023°33'0 0.0
2016-Feb-01 18:31N 37°55' E 023°33'0 0.0
2016-Feb-01 17:31N 37°55' E 023°33'0 0.0
2016-Feb-01 16:31N 37°55' E 023°33'0 0.0
2016-Feb-01 15:31N 37°55' E 023°33'0 0.0
2016-Feb-01 14:31N 37°55' E 023°33'0 0.0
2016-Feb-01 13:31N 37°55' E 023°33'0 0.0
2016-Feb-01 12:31N 37°55' E 023°33'0 0.0
2016-Feb-01 11:31N 37°55' E 023°33'0 0.0
2016-Feb-01 10:31N 37°55' E 023°33'0 0.0
2016-Feb-01 09:31N 37°55' E 023°33'0 0.0
2016-Feb-01 08:31N 37°55' E 023°33'0 0.0
2016-Feb-01 07:31N 37°55' E 023°33'0 0.0
2016-Feb-01 06:31N 37°55' E 023°33'0 0.0
2016-Feb-01 05:31N 37°55' E 023°33'0 0.0
2016-Feb-01 04:31N 37°55' E 023°33'0 0.0
2016-Feb-01 03:31N 37°55' E 023°33'0 0.0
2016-Feb-01 02:31N 37°55' E 023°33'0 0.0
2016-Feb-01 01:31N 37°55' E 023°33'0 0.0
2016-Feb-01 00:31N 37°55' E 023°33'0 0.0
2016-Jan-31 23:31N 37°55' E 023°33'0 0.0
2016-Jan-31 22:31N 37°55' E 023°33'0 0.0
2016-Jan-31 21:31N 37°55' E 023°33'0 0.0
2016-Jan-31 20:31N 37°55' E 023°33'0 0.0
2016-Jan-31 19:31N 37°55' E 023°33'0 0.0
2016-Jan-31 18:31N 37°55' E 023°33'0 0.0
2016-Jan-31 17:31N 37°55' E 023°33'0 0.0
2016-Jan-31 16:31N 37°55' E 023°33'0 0.0
2016-Jan-31 15:31N 37°55' E 023°33'0 0.0
2016-Jan-31 14:31N 37°55' E 023°33'0 0.0
2016-Jan-31 13:31N 37°55' E 023°33'0 0.0
2016-Jan-31 12:31N 37°55' E 023°33'0 0.0
2016-Jan-31 11:31N 37°55' E 023°33'0 0.0
2016-Jan-31 10:31N 37°55' E 023°33'0 0.0
2016-Jan-31 09:31N 37°55' E 023°33'0 0.0
2016-Jan-31 08:31N 37°55' E 023°33'0 0.0
2016-Jan-31 07:31N 37°55' E 023°33'0 0.0
2016-Jan-31 06:31N 37°55' E 023°33'0 0.0
2016-Jan-31 05:31N 37°55' E 023°33'0 0.0
2016-Jan-31 04:31N 37°55' E 023°33'0 0.0
2016-Jan-31 03:31N 37°55' E 023°33'0 0.0
2016-Jan-31 02:31N 37°55' E 023°33'0 0.0
2016-Jan-31 01:31N 37°55' E 023°33'0 0.0
2016-Jan-31 00:31N 37°55' E 023°33'0 0.0
2016-Jan-30 23:25N 37°55' E 023°33'0 0.0
2016-Jan-30 22:31N 37°55' E 023°33'0 0.0
2016-Jan-30 21:25N 37°55' E 023°33'0 0.0
2016-Jan-30 20:31N 37°55' E 023°33'0 0.0
2016-Jan-30 19:31N 37°55' E 023°33'0 0.0
2016-Jan-30 18:31N 37°55' E 023°33'0 0.0
2016-Jan-30 17:31N 37°55' E 023°33'0 0.0
2016-Jan-30 16:31N 37°55' E 023°33'0 0.0
2016-Jan-30 15:31N 37°55' E 023°33'0 0.0
2016-Jan-30 14:31N 37°55' E 023°33'0 0.0
2016-Jan-30 13:31N 37°55' E 023°33'0 0.0
2016-Jan-30 12:31N 37°55' E 023°33'0 0.0
2016-Jan-30 11:31N 37°55' E 023°33'0 0.0
2016-Jan-30 10:31N 37°55' E 023°33'0 0.0
2016-Jan-30 09:31N 37°55' E 023°33'0 0.0
2016-Jan-30 08:31N 37°55' E 023°33'0 0.0
2016-Jan-30 07:28N 37°55' E 023°33'0 0.0
2016-Jan-30 06:28N 37°55' E 023°33'0 0.0
2016-Jan-30 05:31N 37°55' E 023°33'0 0.0
2016-Jan-30 04:31N 37°55' E 023°33'0 0.0
2016-Jan-30 03:31N 37°55' E 023°33'0 0.0
2016-Jan-30 02:31N 37°55' E 023°33'0 0.0
2016-Jan-30 01:28N 37°55' E 023°33'0 0.0
2016-Jan-30 00:31N 37°55' E 023°33'0 0.0
2016-Jan-29 23:25N 37°55' E 023°33'0 0.0
2016-Jan-29 22:28N 37°55' E 023°33'0 0.0
2016-Jan-29 21:31N 37°55' E 023°33'0 0.0
2016-Jan-29 20:31N 37°55' E 023°33'0 0.0
2016-Jan-29 19:31N 37°55' E 023°33'0 0.0
2016-Jan-29 18:31N 37°55' E 023°33'0 0.0
2016-Jan-29 17:31N 37°55' E 023°33'0 0.0
2016-Jan-29 16:31N 37°55' E 023°33'0 0.0
2016-Jan-29 15:31N 37°55' E 023°33'0 0.0
2016-Jan-29 14:31N 37°55' E 023°33'0 0.0
2016-Jan-29 13:31N 37°55' E 023°33'0 0.0
2016-Jan-29 12:28N 37°55' E 023°33'0 0.0
2016-Jan-29 11:31N 37°55' E 023°33'0 0.0
2016-Jan-29 10:31N 37°55' E 023°33'0 0.0
2016-Jan-29 09:31N 37°55' E 023°33'0 0.0
2016-Jan-29 08:31N 37°55' E 023°33'0 0.0
2016-Jan-29 07:31N 37°55' E 023°33'0 0.0
2016-Jan-29 06:31N 37°55' E 023°33'0 0.0
2016-Jan-29 05:31N 37°55' E 023°33'0 0.0
2016-Jan-29 04:31N 37°55' E 023°33'0 0.0
2016-Jan-29 03:31N 37°55' E 023°33'0 0.0
2016-Jan-29 02:31N 37°55' E 023°33'0 0.0
2016-Jan-29 01:31N 37°55' E 023°33'0 0.0
2016-Jan-29 00:31N 37°55' E 023°33'0 0.0
2016-Jan-28 23:31N 37°55' E 023°33'0 0.0
2016-Jan-28 22:31N 37°55' E 023°33'0 0.0
2016-Jan-28 21:31N 37°55' E 023°33'0 0.0
2016-Jan-28 20:31N 37°55' E 023°33'0 0.1
2016-Jan-28 19:28N 37°55' E 023°33'0 0.0
2016-Jan-28 18:31N 37°55' E 023°33'0 0.0
2016-Jan-28 17:31N 37°55' E 023°33'0 0.1
2016-Jan-28 16:31N 37°55' E 023°33'0 0.0
2016-Jan-28 15:28N 37°55' E 023°33'0 0.0
2016-Jan-28 14:34N 37°55' E 023°33'0 0.0
2016-Jan-28 13:34N 37°55' E 023°33'1 0.6
2016-Jan-28 12:34N 37°55' E 023°34'8 7.9
2016-Jan-28 11:34N 37°49' E 023°41'9 8.7
2016-Jan-28 10:33N 37°41' E 023°45'96 7.8
2016-Jan-27 22:21N 36°19' E 024°48'33 8.8
2016-Jan-27 18:34N 36°01' E 025°22'  
Track history (hours):
 
Tides and Currents Weather Stations Pressure Air Temp Water Temp Dewpoint Dewpoint Depression Visibility Wind Speed Wind Dir Waves Ship Positions

Odin Finder

Last reported at 2016-Feb-06 17:33 UTC. Time now 2016-Feb-06 18:29 UTC.
Position N 37°39' E 023°30'.

Length 46 m; draft 4.9 m.

Type: Ship. MMSI: 247048200.

Date/timePositionNaut miles runAvg speedWind from/ knotsBaromVisibWave heightAir tempDewpointWater temp
2016-Feb-06 17:33N 37°39' E 023°30'1 0.6
2016-Feb-06 16:33N 37°39' E 023°30'0 0.1
2016-Feb-06 15:33N 37°39' E 023°30'0 0.5
2016-Feb-06 14:33N 37°40' E 023°30'1 0.6
2016-Feb-06 13:33N 37°40' E 023°30'1 1.2
2016-Feb-06 12:34N 37°39' E 023°30'1 0.6
2016-Feb-06 11:34N 37°39' E 023°30'1 0.6
2016-Feb-06 10:33N 37°40' E 023°30'1 0.8
2016-Feb-06 09:34N 37°41' E 023°31'5 5.4
2016-Feb-06 08:34N 37°45' E 023°34'5 5.3
2016-Feb-06 07:34N 37°40' E 023°31'1 1.0
2016-Feb-06 06:30N 37°40' E 023°30'1 1.4
2016-Feb-06 05:34N 37°39' E 023°30'0 0.1
2016-Feb-06 04:34N 37°39' E 023°30'0 0.3
2016-Feb-06 03:33N 37°39' E 023°30'0 0.3
2016-Feb-06 02:30N 37°39' E 023°30'1 0.6
2016-Feb-06 01:32N 37°40' E 023°30'1 1.2
2016-Feb-06 00:31N 37°39' E 023°30'1 0.8
2016-Feb-05 23:34N 37°39' E 023°30'1 0.8
2016-Feb-05 22:34N 37°38' E 023°31'1 0.8
2016-Feb-05 21:34N 37°39' E 023°31'1 0.5
2016-Feb-05 20:33N 37°40' E 023°31'0 0.3
2016-Feb-05 19:33N 37°40' E 023°30'0 0.3
2016-Feb-05 18:33N 37°40' E 023°30'0 0.3
2016-Feb-05 17:33N 37°39' E 023°30'0 0.4
2016-Feb-05 16:33N 37°39' E 023°31'0 0.3
2016-Feb-05 15:33N 37°39' E 023°31'1 0.7
2016-Feb-05 14:34N 37°40' E 023°30'1 0.5
2016-Feb-05 13:34N 37°40' E 023°30'0 0.3
2016-Feb-05 12:32N 37°40' E 023°30'0 0.1
2016-Feb-05 11:34N 37°40' E 023°30'0 0.4
2016-Feb-05 10:34N 37°40' E 023°29'0 0.2
2016-Feb-05 09:33N 37°40' E 023°29'0 0.2
2016-Feb-05 08:34N 37°40' E 023°29'2 1.6
2016-Feb-05 07:33N 37°40' E 023°31'0 0.3
2016-Feb-05 06:34N 37°41' E 023°31'2 2.2
2016-Feb-05 05:34N 37°39' E 023°30'0 0.2
2016-Feb-05 04:34N 37°39' E 023°30'0 0.5
2016-Feb-05 03:33N 37°39' E 023°30'1 0.5
2016-Feb-05 02:34N 37°39' E 023°31'2 2.0
2016-Feb-05 01:34N 37°39' E 023°33'0 0.4
2016-Feb-05 00:34N 37°39' E 023°33'1 0.6
2016-Feb-04 23:34N 37°39' E 023°32'1 0.8
2016-Feb-04 22:33N 37°38' E 023°31'1 0.8
2016-Feb-04 21:33N 37°39' E 023°32'1 1.3
2016-Feb-04 20:33N 37°39' E 023°34'2 2.2
2016-Feb-04 19:34N 37°37' E 023°35'3 3.2
2016-Feb-04 18:34N 37°35' E 023°38'1 0.7
2016-Feb-04 17:33N 37°35' E 023°39'4 3.7
2016-Feb-04 16:34N 37°39' E 023°38'4 4.3
2016-Feb-04 15:34N 37°43' E 023°36'1 0.8
2016-Feb-04 14:34N 37°42' E 023°36'1 0.8
2016-Feb-04 13:33N 37°42' E 023°37'0 0.3
2016-Feb-04 12:33N 37°42' E 023°36'2 2.2
2016-Feb-04 11:34N 37°40' E 023°37'4 3.7
2016-Feb-04 10:33N 37°44' E 023°36'4 3.8
2016-Feb-04 09:34N 37°47' E 023°34'5 4.7
2016-Feb-04 08:34N 37°50' E 023°29'3 2.8
2016-Feb-04 07:34N 37°52' E 023°26'4 4.1
2016-Feb-04 06:33N 37°54' E 023°22'3 3.3
2016-Feb-04 05:34N 37°57' E 023°21'2 2.3
2016-Feb-04 04:34N 37°55' E 023°21'4 3.8
2016-Feb-04 03:34N 37°52' E 023°24'4 4.0
2016-Feb-04 02:34N 37°50' E 023°29'4 4.3
2016-Feb-04 01:34N 37°47' E 023°33'4 4.1
2016-Feb-04 00:34N 37°44' E 023°36'2 1.7
2016-Feb-03 23:34N 37°42' E 023°36'4 4.3
2016-Feb-03 22:34N 37°46' E 023°35'5 4.5
2016-Feb-03 21:34N 37°49' E 023°30'5 4.7
2016-Feb-03 20:34N 37°52' E 023°25'4 4.3
2016-Feb-03 19:33N 37°55' E 023°21'1 1.2
2016-Feb-03 18:33N 37°56' E 023°21'0 0.5
2016-Feb-03 17:33N 37°56' E 023°21'0 0.1
2016-Feb-03 16:33N 37°56' E 023°21'4 3.8
2016-Feb-03 15:34N 37°53' E 023°22'2 1.7
2016-Feb-03 14:34N 37°51' E 023°23'1 0.9
2016-Feb-03 13:34N 37°52' E 023°23'0 0.4
2016-Feb-03 12:33N 37°52' E 023°23'5 5.3
2016-Feb-03 11:34N 37°50' E 023°29'5 4.6
2016-Feb-03 10:34N 37°52' E 023°34'3 3.3
2016-Feb-03 09:33N 37°55' E 023°33'0 0.0
2016-Feb-03 08:33N 37°55' E 023°33'0 0.0
2016-Feb-03 07:33N 37°55' E 023°33'0 0.0
2016-Feb-03 06:30N 37°55' E 023°33'0 0.0
2016-Feb-03 05:30N 37°55' E 023°33'0 0.0
2016-Feb-03 04:33N 37°55' E 023°33'0 0.0
2016-Feb-03 03:33N 37°55' E 023°33'0 0.0
2016-Feb-03 02:33N 37°55' E 023°33'0 0.0
2016-Feb-03 01:33N 37°55' E 023°33'0 0.0
2016-Feb-03 00:33N 37°55' E 023°33'0 0.0
2016-Feb-02 23:33N 37°55' E 023°33'0 0.0
2016-Feb-02 22:33N 37°55' E 023°33'0 0.0
2016-Feb-02 21:33N 37°55' E 023°33'0 0.0
2016-Feb-02 20:33N 37°55' E 023°33'0 0.0
2016-Feb-02 19:33N 37°55' E 023°33'0 0.0
2016-Feb-02 18:30N 37°55' E 023°33'0 0.0
2016-Feb-02 17:33N 37°55' E 023°33'0 0.0
2016-Feb-02 16:33N 37°55' E 023°33'0 0.0
2016-Feb-02 15:33N 37°55' E 023°33'0 0.0
2016-Feb-02 14:30N 37°55' E 023°33'0 0.0
2016-Feb-02 13:33N 37°55' E 023°33'0 0.0
2016-Feb-02 12:33N 37°55' E 023°33'0 0.0
2016-Feb-02 11:30N 37°55' E 023°33'0 0.0
2016-Feb-02 10:33N 37°55' E 023°33'0 0.0
2016-Feb-02 09:33N 37°55' E 023°33'0 0.0
2016-Feb-02 08:31N 37°55' E 023°33'0 0.0
2016-Feb-02 07:31N 37°55' E 023°33'0 0.1
2016-Feb-02 06:31N 37°55' E 023°33'0 0.0
2016-Feb-02 05:31N 37°55' E 023°33'0 0.0
2016-Feb-02 04:31N 37°55' E 023°33'0 0.0
2016-Feb-02 03:31N 37°55' E 023°33'0 0.0
2016-Feb-02 02:31N 37°55' E 023°33'0 0.0
2016-Feb-02 01:31N 37°55' E 023°33'0 0.0
2016-Feb-02 00:31N 37°55' E 023°33'0 0.0
2016-Feb-01 23:31N 37°55' E 023°33'0 0.0
2016-Feb-01 22:31N 37°55' E 023°33'0 0.0
2016-Feb-01 21:31N 37°55' E 023°33'0 0.0
2016-Feb-01 20:28N 37°55' E 023°33'0 0.0
2016-Feb-01 19:31N 37°55' E 023°33'0 0.0
2016-Feb-01 18:31N 37°55' E 023°33'0 0.0
2016-Feb-01 17:31N 37°55' E 023°33'0 0.0
2016-Feb-01 16:31N 37°55' E 023°33'0 0.0
2016-Feb-01 15:31N 37°55' E 023°33'0 0.0
2016-Feb-01 14:31N 37°55' E 023°33'0 0.0
2016-Feb-01 13:31N 37°55' E 023°33'0 0.0
2016-Feb-01 12:31N 37°55' E 023°33'0 0.0
2016-Feb-01 11:31N 37°55' E 023°33'0 0.0
2016-Feb-01 10:31N 37°55' E 023°33'0 0.0
2016-Feb-01 09:31N 37°55' E 023°33'0 0.0
2016-Feb-01 08:31N 37°55' E 023°33'0 0.0
2016-Feb-01 07:31N 37°55' E 023°33'0 0.0
2016-Feb-01 06:31N 37°55' E 023°33'0 0.0
2016-Feb-01 05:31N 37°55' E 023°33'0 0.0
2016-Feb-01 04:31N 37°55' E 023°33'0 0.0
2016-Feb-01 03:31N 37°55' E 023°33'0 0.0
2016-Feb-01 02:31N 37°55' E 023°33'0 0.0
2016-Feb-01 01:31N 37°55' E 023°33'0 0.0
2016-Feb-01 00:31N 37°55' E 023°33'0 0.0
2016-Jan-31 23:31N 37°55' E 023°33'0 0.0
2016-Jan-31 22:31N 37°55' E 023°33'0 0.0
2016-Jan-31 21:31N 37°55' E 023°33'0 0.0
2016-Jan-31 20:31N 37°55' E 023°33'0 0.0
2016-Jan-31 19:31N 37°55' E 023°33'0 0.0
2016-Jan-31 18:31N 37°55' E 023°33'0 0.0
2016-Jan-31 17:31N 37°55' E 023°33'0 0.0
2016-Jan-31 16:31N 37°55' E 023°33'0 0.0
2016-Jan-31 15:31N 37°55' E 023°33'0 0.0
2016-Jan-31 14:31N 37°55' E 023°33'0 0.0
2016-Jan-31 13:31N 37°55' E 023°33'0 0.0
2016-Jan-31 12:31N 37°55' E 023°33'0 0.0
2016-Jan-31 11:31N 37°55' E 023°33'0 0.0
2016-Jan-31 10:31N 37°55' E 023°33'0 0.0
2016-Jan-31 09:31N 37°55' E 023°33'0 0.0
2016-Jan-31 08:31N 37°55' E 023°33'0 0.0
2016-Jan-31 07:31N 37°55' E 023°33'0 0.0
2016-Jan-31 06:31N 37°55' E 023°33'0 0.0
2016-Jan-31 05:31N 37°55' E 023°33'0 0.0
2016-Jan-31 04:31N 37°55' E 023°33'0 0.0
2016-Jan-31 03:31N 37°55' E 023°33'0 0.0
2016-Jan-31 02:31N 37°55' E 023°33'0 0.0
2016-Jan-31 01:31N 37°55' E 023°33'0 0.0
2016-Jan-31 00:31N 37°55' E 023°33'0 0.0
2016-Jan-30 23:25N 37°55' E 023°33'0 0.0
2016-Jan-30 22:31N 37°55' E 023°33'0 0.0
2016-Jan-30 21:25N 37°55' E 023°33'0 0.0
2016-Jan-30 20:31N 37°55' E 023°33'0 0.0
2016-Jan-30 19:31N 37°55' E 023°33'0 0.0
2016-Jan-30 18:31N 37°55' E 023°33'0 0.0
2016-Jan-30 17:31N 37°55' E 023°33'0 0.0
2016-Jan-30 16:31N 37°55' E 023°33'0 0.0
2016-Jan-30 15:31N 37°55' E 023°33'0 0.0
2016-Jan-30 14:31N 37°55' E 023°33'0 0.0
2016-Jan-30 13:31N 37°55' E 023°33'0 0.0
2016-Jan-30 12:31N 37°55' E 023°33'0 0.0
2016-Jan-30 11:31N 37°55' E 023°33'0 0.0
2016-Jan-30 10:31N 37°55' E 023°33'0 0.0
2016-Jan-30 09:31N 37°55' E 023°33'0 0.0
2016-Jan-30 08:31N 37°55' E 023°33'0 0.0
2016-Jan-30 07:28N 37°55' E 023°33'0 0.0
2016-Jan-30 06:28N 37°55' E 023°33'0 0.0
2016-Jan-30 05:31N 37°55' E 023°33'0 0.0
2016-Jan-30 04:31N 37°55' E 023°33'0 0.0
2016-Jan-30 03:31N 37°55' E 023°33'0 0.0
2016-Jan-30 02:31N 37°55' E 023°33'0 0.0
2016-Jan-30 01:28N 37°55' E 023°33'0 0.0
2016-Jan-30 00:31N 37°55' E 023°33'0 0.0
2016-Jan-29 23:25N 37°55' E 023°33'0 0.0
2016-Jan-29 22:28N 37°55' E 023°33'0 0.0
2016-Jan-29 21:31N 37°55' E 023°33'0 0.0
2016-Jan-29 20:31N 37°55' E 023°33'0 0.0
2016-Jan-29 19:31N 37°55' E 023°33'0 0.0
2016-Jan-29 18:31N 37°55' E 023°33'0 0.0
2016-Jan-29 17:31N 37°55' E 023°33'0 0.0
2016-Jan-29 16:31N 37°55' E 023°33'0 0.0
2016-Jan-29 15:31N 37°55' E 023°33'0 0.0
2016-Jan-29 14:31N 37°55' E 023°33'0 0.0
2016-Jan-29 13:31N 37°55' E 023°33'0 0.0
2016-Jan-29 12:28N 37°55' E 023°33'0 0.0
2016-Jan-29 11:31N 37°55' E 023°33'0 0.0
2016-Jan-29 10:31N 37°55' E 023°33'0 0.0
2016-Jan-29 09:31N 37°55' E 023°33'0 0.0
2016-Jan-29 08:31N 37°55' E 023°33'0 0.0
2016-Jan-29 07:31N 37°55' E 023°33'0 0.0
2016-Jan-29 06:31N 37°55' E 023°33'0 0.0
2016-Jan-29 05:31N 37°55' E 023°33'0 0.0
2016-Jan-29 04:31N 37°55' E 023°33'0 0.0
2016-Jan-29 03:31N 37°55' E 023°33'0 0.0
2016-Jan-29 02:31N 37°55' E 023°33'0 0.0
2016-Jan-29 01:31N 37°55' E 023°33'0 0.0
2016-Jan-29 00:31N 37°55' E 023°33'0 0.0
2016-Jan-28 23:31N 37°55' E 023°33'0 0.0
2016-Jan-28 22:31N 37°55' E 023°33'0 0.0
2016-Jan-28 21:31N 37°55' E 023°33'0 0.0
2016-Jan-28 20:31N 37°55' E 023°33'0 0.1
2016-Jan-28 19:28N 37°55' E 023°33'0 0.0
2016-Jan-28 18:31N 37°55' E 023°33'0 0.0
2016-Jan-28 17:31N 37°55' E 023°33'0 0.1
2016-Jan-28 16:31N 37°55' E 023°33'0 0.0
2016-Jan-28 15:28N 37°55' E 023°33'0 0.0
2016-Jan-28 14:34N 37°55' E 023°33'0 0.0
2016-Jan-28 13:34N 37°55' E 023°33'1 0.6
2016-Jan-28 12:34N 37°55' E 023°34'8 7.9
2016-Jan-28 11:34N 37°49' E 023°41'9 8.7
2016-Jan-28 10:33N 37°41' E 023°45'96 7.8
2016-Jan-27 22:21N 36°19' E 024°48'33 8.8
2016-Jan-27 18:34N 36°01' E 025°22'  

Dump ship's entire track history